Time;durP1;ratioP1;P1;durP2;ratioP2;P2;SDS_P1;SDS_P2;PMS_P1;PMS_P2;Temp;Humidity;BMP_temperature;BMP_pressure;BME280_temperature;BME280_humidity;BME280_pressure;Samples;Min_cycle;Max_cycle;Signal;HPM_P1;HPM_P2
2023/05/04 04:02:28;;;;;;;3.97;3.67;;;12.50;73.50;;;;;;5194085;22;20495;-75
2023/05/04 04:04:54;;;;;;;4.73;4.23;;;12.40;73.70;;;;;;5035058;28;20455;-74
2023/05/04 04:07:21;;;;;;;5.33;4.20;;;12.40;73.70;;;;;;5035697;28;20479;-74
2023/05/04 04:09:48;;;;;;;4.47;4.07;;;12.40;73.60;;;;;;5035276;28;20501;-75
2023/05/04 04:12:17;;;;;;;5.30;4.27;;;12.50;73.50;;;;;;5035229;28;20467;-75
2023/05/04 04:14:43;;;;;;;4.47;4.07;;;12.40;73.50;;;;;;5035229;28;20455;-74
2023/05/04 04:17:10;;;;;;;4.73;4.10;;;12.40;73.60;;;;;;5034691;28;20458;-75
2023/05/04 04:19:38;;;;;;;5.47;4.97;;;12.40;73.70;;;;;;5035071;28;20443;-75
2023/05/04 04:22:05;;;;;;;5.10;4.70;;;12.40;73.80;;;;;;5034774;28;20464;-75
2023/05/04 04:24:32;;;;;;;5.20;4.70;;;12.50;73.70;;;;;;5035071;28;20455;-75
2023/05/04 04:26:59;;;;;;;4.50;4.10;;;12.50;73.70;;;;;;5034895;28;20460;-75
2023/05/04 04:29:26;;;;;;;4.50;4.10;;;12.50;73.70;;;;;;5035044;28;20451;-75
2023/05/04 04:31:52;;;;;;;4.40;4.00;;;12.50;73.90;;;;;;5034724;28;20558;-75
2023/05/04 04:34:19;;;;;;;4.37;3.97;;;12.50;73.80;;;;;;5034768;28;20444;-74
2023/05/04 04:36:47;;;;;;;4.17;3.77;;;12.60;73.80;;;;;;5034752;28;20455;-74
2023/05/04 04:39:15;;;;;;;4.20;3.80;;;12.60;73.80;;;;;;5034639;28;20495;-74
2023/05/04 04:41:42;;;;;;;5.90;4.30;;;12.70;73.70;;;;;;5034676;28;20471;-75
2023/05/04 04:44:08;;;;;;;3.73;3.43;;;12.80;73.60;;;;;;5034612;28;20443;-74
2023/05/04 04:46:35;;;;;;;4.33;3.93;;;12.90;73.50;;;;;;5034177;28;20454;-75
2023/05/04 04:49:02;;;;;;;5.10;4.70;;;13.00;73.40;;;;;;5034494;28;20830;-74
2023/05/04 04:51:28;;;;;;;4.00;3.70;;;13.00;73.20;;;;;;5034113;28;21046;-75
2023/05/04 04:53:56;;;;;;;5.17;4.67;;;13.10;73.10;;;;;;5034409;28;20460;-75
2023/05/04 04:56:23;;;;;;;4.67;4.27;;;13.20;72.90;;;;;;5034122;28;21045;-74
2023/05/04 04:58:50;;;;;;;4.40;4.00;;;13.30;73.00;;;;;;5034002;28;20955;-74
2023/05/04 05:01:17;;;;;;;4.43;4.03;;;13.40;73.00;;;;;;5034050;28;20514;-74
2023/05/04 05:03:44;;;;;;;4.53;4.17;;;13.40;72.90;;;;;;5034255;28;20521;-74
2023/05/04 05:06:11;;;;;;;7.90;4.43;;;13.50;72.60;;;;;;5034069;28;20784;-74
2023/05/04 05:08:38;;;;;;;4.47;4.03;;;13.60;72.20;;;;;;5034074;28;20570;-75
2023/05/04 05:11:07;;;;;;;5.73;5.23;;;13.50;72.00;;;;;;5034084;28;20561;-75
2023/05/04 05:13:33;;;;;;;4.70;4.27;;;13.40;71.60;;;;;;5033990;28;20456;-75
2023/05/04 05:16:12;;;;;;;5.00;4.50;;;13.20;72.10;;;;;;5034216;28;20509;-73
2023/05/04 05:18:38;;;;;;;4.90;4.40;;;13.40;72.60;;;;;;5034000;28;20436;-76
2023/05/04 05:21:06;;;;;;;5.10;4.70;;;13.40;72.80;;;;;;5033808;28;20472;-75
2023/05/04 05:23:34;;;;;;;5.07;4.67;;;13.60;72.30;;;;;;5034014;28;20494;-75
2023/05/04 05:26:01;;;;;;;5.10;4.60;;;13.70;72.20;;;;;;5033774;28;20450;-74
2023/05/04 05:28:29;;;;;;;4.67;4.27;;;13.90;71.80;;;;;;5033263;28;20480;-75
2023/05/04 05:30:56;;;;;;;5.60;5.17;;;13.90;71.70;;;;;;5033597;28;20555;-75
2023/05/04 05:33:23;;;;;;;5.30;4.80;;;14.00;71.40;;;;;;5033579;28;20856;-75
2023/05/04 05:35:50;;;;;;;6.37;5.73;;;14.20;71.40;;;;;;5033661;28;20533;-75
2023/05/04 05:38:16;;;;;;;5.77;5.27;;;14.10;70.90;;;;;;5033354;28;20933;-75
2023/05/04 05:40:43;;;;;;;6.00;5.30;;;14.00;71.30;;;;;;5033149;28;20988;-76
2023/05/04 05:43:10;;;;;;;6.00;5.50;;;14.00;71.80;;;;;;5033213;28;20849;-75
2023/05/04 05:45:37;;;;;;;5.53;5.03;;;13.80;71.80;;;;;;5033453;28;20454;-75
2023/05/04 05:48:05;;;;;;;5.60;5.10;;;13.60;72.60;;;;;;5033296;28;20479;-76
2023/05/04 05:50:31;;;;;;;5.87;4.83;;;13.60;72.60;;;;;;5033330;28;20448;-75
2023/05/04 05:52:58;;;;;;;5.30;4.80;;;13.70;73.00;;;;;;5033946;28;20506;-75
2023/05/04 05:55:25;;;;;;;5.63;5.13;;;13.90;73.00;;;;;;5033245;28;20456;-75
2023/05/04 05:57:51;;;;;;;5.80;5.10;;;13.90;72.70;;;;;;5033333;28;20553;-76
2023/05/04 06:00:19;;;;;;;5.63;5.13;;;14.00;72.70;;;;;;5033116;28;20835;-75
2023/05/04 06:02:47;;;;;;;5.70;5.10;;;14.30;72.30;;;;;;5032988;28;20509;-75
2023/05/04 06:05:14;;;;;;;5.00;4.60;;;14.30;71.40;;;;;;5033529;28;20452;-75
2023/05/04 06:07:40;;;;;;;5.60;5.10;;;14.50;71.70;;;;;;5033013;28;20909;-74
2023/05/04 06:10:09;;;;;;;5.60;5.10;;;14.60;71.30;;;;;;5032700;28;20940;-74
2023/05/04 06:12:36;;;;;;;5.47;4.97;;;14.80;70.80;;;;;;5033043;28;20499;-74
2023/05/04 06:15:02;;;;;;;5.17;4.73;;;14.80;70.90;;;;;;5032917;28;20455;-74
2023/05/04 06:17:29;;;;;;;6.07;5.57;;;15.00;70.20;;;;;;5033387;28;20470;-74
2023/05/04 06:19:57;;;;;;;5.90;5.30;;;15.00;71.20;;;;;;5032894;28;20447;-74
2023/05/04 06:22:24;;;;;;;5.60;4.87;;;15.20;69.80;;;;;;5032775;28;20467;-74
2023/05/04 06:24:51;;;;;;;4.97;4.57;;;15.30;70.40;;;;;;5032834;28;20498;-74
2023/05/04 06:27:17;;;;;;;5.67;5.07;;;15.30;69.80;;;;;;5033162;28;20543;-74
2023/05/04 06:29:45;;;;;;;5.80;5.30;;;15.60;69.90;;;;;;5032763;28;20519;-74
2023/05/04 06:32:12;;;;;;;4.70;4.17;;;15.90;68.70;;;;;;5032604;28;20494;-74
2023/05/04 06:34:38;;;;;;;5.07;4.60;;;16.20;68.10;;;;;;5032654;28;20451;-73
2023/05/04 06:37:06;;;;;;;6.80;5.20;;;16.00;68.10;;;;;;5032766;28;20443;-74
2023/05/04 06:39:33;;;;;;;5.33;4.77;;;16.00;68.00;;;;;;5032100;28;20497;-74
2023/05/04 06:42:00;;;;;;;6.30;4.20;;;16.00;68.20;;;;;;5032549;28;20464;-74
2023/05/04 06:44:27;;;;;;;5.93;5.33;;;16.00;67.70;;;;;;5033051;28;20534;-74
2023/05/04 06:46:53;;;;;;;6.23;5.70;;;15.90;67.40;;;;;;5032621;28;20447;-74
2023/05/04 06:49:20;;;;;;;4.97;4.57;;;16.00;68.40;;;;;;5032428;28;20550;-74
2023/05/04 06:51:47;;;;;;;5.37;4.87;;;16.10;67.60;;;;;;5032491;28;20475;-74
2023/05/04 06:54:15;;;;;;;5.63;4.90;;;16.20;67.70;;;;;;5032595;28;20502;-73
2023/05/04 06:56:42;;;;;;;5.40;4.70;;;16.50;68.20;;;;;;5032588;28;20447;-75
2023/05/04 06:59:09;;;;;;;5.13;4.63;;;16.60;67.40;;;;;;5032587;28;20458;-74
2023/05/04 07:01:36;;;;;;;5.57;5.07;;;16.70;67.30;;;;;;5032121;28;20506;-74
2023/05/04 07:04:03;;;;;;;5.07;4.67;;;16.70;66.50;;;;;;5032478;28;20578;-75
2023/05/04 07:06:31;;;;;;;5.03;4.53;;;16.80;66.20;;;;;;5032212;28;20447;-74
2023/05/04 07:08:57;;;;;;;5.63;5.13;;;17.00;66.60;;;;;;5032315;28;20478;-75
2023/05/04 07:11:26;;;;;;;5.03;4.63;;;17.20;66.20;;;;;;5032343;28;20471;-74
2023/05/04 07:13:53;;;;;;;4.97;4.57;;;17.40;65.00;;;;;;5032479;28;20518;-75
2023/05/04 07:16:20;;;;;;;5.67;5.17;;;17.30;66.00;;;;;;5032355;28;20452;-74
2023/05/04 07:18:46;;;;;;;5.43;4.83;;;17.40;65.80;;;;;;5032348;28;20447;-75
2023/05/04 07:21:13;;;;;;;5.83;5.33;;;17.60;65.70;;;;;;5032218;28;20467;-74
2023/05/04 07:23:40;;;;;;;4.90;4.50;;;17.70;64.90;;;;;;5032256;28;20455;-75
2023/05/04 07:26:07;;;;;;;4.90;4.50;;;17.90;65.10;;;;;;5032357;28;20486;-74
2023/05/04 07:28:35;;;;;;;5.90;4.50;;;18.20;63.80;;;;;;5032216;28;20479;-74
2023/05/04 07:31:02;;;;;;;5.23;4.73;;;18.30;63.50;;;;;;5032192;28;20470;-75
2023/05/04 07:33:29;;;;;;;4.60;4.20;;;18.40;63.60;;;;;;5032247;28;20444;-74
2023/05/04 07:35:59;;;;;;;4.80;4.30;;;18.20;63.30;;;;;;5032270;28;20554;-74
2023/05/04 07:38:26;;;;;;;7.77;4.60;;;18.30;64.00;;;;;;5031838;28;20863;-76
2023/05/04 07:40:53;;;;;;;7.63;5.70;;;18.20;64.60;;;;;;5032184;28;20900;-75
2023/05/04 07:43:20;;;;;;;4.60;4.20;;;18.30;64.30;;;;;;5032183;28;20551;-74
2023/05/04 07:45:48;;;;;;;5.37;4.30;;;18.60;62.50;;;;;;5032232;28;20505;-74
2023/05/04 07:48:15;;;;;;;5.63;5.00;;;18.40;62.40;;;;;;5032078;28;20455;-73
2023/05/04 07:50:42;;;;;;;4.30;4.00;;;18.50;64.20;;;;;;5032062;28;20525;-75
2023/05/04 07:53:08;;;;;;;5.30;4.80;;;18.70;62.80;;;;;;5034715;28;20455;-74
2023/05/04 07:55:35;;;;;;;4.67;4.27;;;18.80;62.20;;;;;;5035626;28;20455;-75
2023/05/04 07:58:02;;;;;;;5.23;4.73;;;18.70;61.90;;;;;;5035322;28;20851;-75
2023/05/04 08:00:29;;;;;;;4.90;4.50;;;18.40;61.60;;;;;;5035389;28;20486;-75
2023/05/04 08:02:57;;;;;;;5.10;4.60;;;18.30;62.00;;;;;;5035469;28;20432;-75
2023/05/04 08:05:23;;;;;;;4.57;4.17;;;18.40;61.60;;;;;;5035322;28;20510;-74
2023/05/04 08:07:50;;;;;;;4.50;4.10;;;18.50;62.60;;;;;;5035274;28;20490;-74
2023/05/04 08:10:17;;;;;;;4.70;4.30;;;18.60;63.90;;;;;;5035197;28;20483;-74
2023/05/04 08:12:43;;;;;;;4.80;4.40;;;18.70;63.80;;;;;;5035178;28;20472;-75
2023/05/04 08:15:11;;;;;;;4.63;4.23;;;19.00;62.90;;;;;;5035236;28;20447;-75
2023/05/04 08:17:38;;;;;;;4.87;4.37;;;18.80;60.70;;;;;;5035206;28;20458;-74
2023/05/04 08:20:08;;;;;;;4.40;4.00;;;18.50;62.20;;;;;;5034878;28;20951;-74
2023/05/04 08:22:35;;;;;;;4.63;4.23;;;18.50;61.40;;;;;;5035373;28;20562;-75
2023/05/04 08:25:02;;;;;;;4.43;4.10;;;18.40;60.60;;;;;;5035074;28;20451;-75
2023/05/04 08:27:28;;;;;;;3.57;3.27;;;18.70;62.10;;;;;;5035067;28;20517;-75
2023/05/04 08:29:57;;;;;;;3.90;3.60;;;18.80;60.40;;;;;;5034649;28;20897;-75
2023/05/04 08:32:24;;;;;;;4.30;4.00;;;18.70;60.80;;;;;;5034860;28;20503;-74
2023/05/04 08:34:50;;;;;;;3.97;3.53;;;18.70;59.90;;;;;;5034958;28;20505;-74
2023/05/04 08:37:18;;;;;;;3.63;3.33;;;18.80;59.40;;;;;;5034629;28;20912;-74
2023/05/04 08:39:45;;;;;;;3.80;3.43;;;19.00;59.60;;;;;;5034465;28;20933;-75
2023/05/04 08:42:12;;;;;;;3.77;3.47;;;19.00;60.30;;;;;;5034379;28;20980;-72
2023/05/04 08:44:39;;;;;;;3.70;3.23;;;19.10;60.90;;;;;;5034793;28;20501;-74
2023/05/04 08:47:05;;;;;;;4.20;3.80;;;19.00;59.30;;;;;;5034301;28;20860;-75
2023/05/04 08:49:32;;;;;;;3.93;3.57;;;19.10;59.90;;;;;;5034254;28;20989;-73
2023/05/04 08:52:00;;;;;;;3.87;3.57;;;19.40;59.70;;;;;;5034560;28;20866;-75
2023/05/04 08:54:29;;;;;;;3.70;3.40;;;19.20;58.90;;;;;;5034636;28;20558;-74
2023/05/04 08:56:57;;;;;;;3.93;3.60;;;19.30;59.00;;;;;;5034590;28;20451;-75
2023/05/04 08:59:27;;;;;;;3.67;3.30;;;19.60;59.90;;;;;;5034538;28;20454;-74
2023/05/04 09:01:57;;;;;;;3.90;3.30;;;19.50;58.50;;;;;;5034379;28;20488;-75
2023/05/04 09:04:25;;;;;;;3.53;3.23;;;19.40;58.50;;;;;;5033890;28;20936;-75
2023/05/04 09:06:52;;;;;;;3.00;2.70;;;19.40;59.50;;;;;;5034326;28;20456;-74
2023/05/04 09:09:20;;;;;;;3.43;3.13;;;19.50;60.70;;;;;;5034262;28;20848;-74
2023/05/04 09:11:48;;;;;;;3.30;3.00;;;19.60;58.10;;;;;;5034154;28;20475;-75
2023/05/04 09:14:15;;;;;;;4.00;3.40;;;19.80;58.20;;;;;;5034154;28;20513;-75
2023/05/04 09:16:41;;;;;;;3.50;2.90;;;19.70;58.70;;;;;;5034659;28;20857;-75
2023/05/04 09:19:17;;;;;;;4.30;3.00;;;20.00;58.80;;;;;;5034067;28;20443;-75
2023/05/04 09:21:45;;;;;;;3.30;3.00;;;20.10;56.40;;;;;;5034229;28;20517;-74
2023/05/04 09:24:12;;;;;;;3.10;2.80;;;20.10;56.50;;;;;;5033934;28;20451;-75
2023/05/04 09:26:39;;;;;;;3.50;3.00;;;19.90;57.40;;;;;;5033904;28;20443;-75
2023/05/04 09:29:12;;;;;;;3.17;2.87;;;20.10;58.00;;;;;;5033791;28;20613;-74
2023/05/04 09:31:43;;;;;;;3.63;3.33;;;20.00;57.40;;;;;;5034050;28;20467;-75
2023/05/04 09:34:10;;;;;;;3.23;2.93;;;20.00;57.70;;;;;;5033741;28;20455;-75
2023/05/04 09:36:37;;;;;;;3.47;3.17;;;20.10;57.80;;;;;;5033743;28;20447;-75
2023/05/04 09:39:10;;;;;;;3.20;2.90;;;20.40;57.20;;;;;;5033682;28;20469;-75
2023/05/04 09:41:37;;;;;;;3.30;3.00;;;20.60;55.70;;;;;;5033174;28;20877;-75
2023/05/04 09:44:04;;;;;;;3.07;2.77;;;20.60;56.80;;;;;;5033156;28;20960;-75
2023/05/04 09:46:32;;;;;;;3.30;2.57;;;20.90;55.80;;;;;;5033416;28;20528;-75
2023/05/04 09:48:59;;;;;;;2.50;2.30;;;21.20;56.40;;;;;;5033168;28;20475;-75
2023/05/04 09:51:27;;;;;;;2.93;2.50;;;21.20;54.70;;;;;;5033276;28;20588;-75
2023/05/04 09:53:54;;;;;;;5.80;2.40;;;21.20;54.40;;;;;;5033301;28;20482;-74
2023/05/04 09:56:31;;;;;;;2.63;2.43;;;21.30;54.50;;;;;;5033225;28;20518;-75
2023/05/04 09:58:59;;;;;;;2.70;2.07;;;21.50;53.60;;;;;;5033050;28;20481;-75
2023/05/04 10:01:28;;;;;;;3.07;2.20;;;21.70;52.90;;;;;;5032835;28;20487;-75
2023/05/04 10:03:57;;;;;;;3.33;2.60;;;21.70;51.90;;;;;;5033161;28;20538;-75
2023/05/04 10:06:24;;;;;;;3.80;2.17;;;21.70;52.50;;;;;;5033208;28;20458;-75
2023/05/04 10:08:51;;;;;;;2.37;2.17;;;21.80;52.20;;;;;;5032722;28;20586;-75
2023/05/04 10:11:19;;;;;;;2.93;1.90;;;21.80;50.80;;;;;;5032756;28;20980;-76
2023/05/04 10:13:46;;;;;;;3.07;1.80;;;22.00;52.00;;;;;;5032854;28;20452;-75
2023/05/04 10:16:27;;;;;;;2.30;1.77;;;22.10;52.00;;;;;;5055997;22;20491;-72
2023/05/04 10:19:26;;;;;;;3.20;2.10;;;22.40;49.70;;;;;;5033661;28;20486;-73
2023/05/04 10:22:07;;;;;;;2.20;2.00;;;22.10;49.20;;;;;;5032740;28;20507;-73
2023/05/04 10:24:56;;;;;;;2.20;1.70;;;22.10;49.10;;;;;;5033559;28;20428;-73
2023/05/04 10:27:43;;;;;;;3.30;1.70;;;22.10;50.00;;;;;;5034498;28;20491;-73
2023/05/04 10:30:12;;;;;;;2.73;1.60;;;22.00;47.50;;;;;;5033335;28;20467;-73
2023/05/04 10:32:40;;;;;;;2.10;1.43;;;22.20;48.00;;;;;;5033189;28;20440;-73
2023/05/04 10:35:09;;;;;;;2.10;1.57;;;22.50;47.40;;;;;;5033386;28;20448;-73
2023/05/04 10:37:37;;;;;;;2.43;1.70;;;22.70;48.60;;;;;;5033275;28;21015;-72
2023/05/04 10:40:06;;;;;;;1.90;1.40;;;22.60;47.40;;;;;;5033443;28;20543;-73
2023/05/04 10:42:41;;;;;;;4.17;1.40;;;22.30;46.60;;;;;;5035568;28;20496;-73
2023/05/04 10:45:08;;;;;;;2.67;1.87;;;22.20;47.10;;;;;;5047018;28;20439;-73
2023/05/04 10:47:38;;;;;;;2.03;1.60;;;22.30;47.70;;;;;;5034312;28;20448;-72
2023/05/04 10:50:09;;;;;;;2.00;1.70;;;22.30;45.70;;;;;;5033340;28;20479;-73
2023/05/04 10:52:46;;;;;;;2.30;1.33;;;22.30;46.90;;;;;;5033472;28;20435;-73
2023/05/04 10:55:14;;;;;;;2.20;1.57;;;22.40;46.80;;;;;;5033978;28;20481;-73
2023/05/04 10:57:48;;;;;;;3.50;1.40;;;22.50;47.00;;;;;;5034409;28;20457;-73
2023/05/04 11:00:16;;;;;;;2.10;1.60;;;22.60;46.20;;;;;;5035732;28;20474;-73
2023/05/04 11:02:43;;;;;;;1.70;1.27;;;22.60;46.50;;;;;;5036228;28;20447;-73
2023/05/04 11:05:16;;;;;;;2.00;1.47;;;22.50;44.10;;;;;;5034659;28;20455;-73
2023/05/04 11:07:43;;;;;;;2.57;1.60;;;22.60;46.20;;;;;;5034910;28;20844;-73
2023/05/04 11:10:22;;;;;;;2.00;1.33;;;22.70;46.30;;;;;;5034631;28;20483;-73
2023/05/04 11:12:49;;;;;;;3.00;2.00;;;22.80;44.50;;;;;;5034341;28;20440;-73
2023/05/04 11:15:16;;;;;;;2.37;2.07;;;22.80;43.70;;;;;;5035129;28;20467;-73
2023/05/04 11:17:46;;;;;;;2.10;1.80;;;22.80;44.50;;;;;;5034134;28;20526;-72
2023/05/04 11:20:21;;;;;;;2.00;1.60;;;22.50;45.10;;;;;;5034063;28;20483;-74
2023/05/04 11:22:49;;;;;;;2.67;1.50;;;22.70;45.60;;;;;;5034813;28;20447;-73
2023/05/04 11:25:27;;;;;;;1.80;1.13;;;23.00;45.90;;;;;;5034506;28;20830;-74
2023/05/04 11:27:54;;;;;;;2.27;1.30;;;23.60;45.90;;;;;;5038273;28;20427;-73
2023/05/04 11:30:21;;;;;;;1.60;1.10;;;23.80;44.10;;;;;;5038075;28;20499;-75
2023/05/04 11:32:49;;;;;;;2.10;1.43;;;23.80;45.40;;;;;;5038467;28;20893;-74
2023/05/04 11:35:17;;;;;;;2.50;1.40;;;23.90;43.30;;;;;;5037613;28;20948;-73
2023/05/04 11:37:48;;;;;;;2.57;1.73;;;23.90;44.50;;;;;;5038190;28;20459;-75
2023/05/04 11:40:17;;;;;;;1.70;1.20;;;23.80;43.30;;;;;;5037786;28;20432;-75
2023/05/04 11:42:44;;;;;;;2.00;1.50;;;24.00;43.80;;;;;;5037433;28;20474;-74
2023/05/04 11:45:15;;;;;;;2.17;1.47;;;23.90;43.90;;;;;;5037251;28;20971;-75
2023/05/04 11:47:43;;;;;;;1.67;1.10;;;23.90;43.60;;;;;;5038007;28;20455;-75
2023/05/04 11:50:13;;;;;;;2.90;1.10;;;23.90;41.20;;;;;;5037425;28;20529;-74
2023/05/04 11:52:41;;;;;;;2.10;1.30;;;23.80;42.60;;;;;;5037476;28;20510;-75
2023/05/04 11:55:10;;;;;;;1.73;1.13;;;23.70;42.60;;;;;;5037690;28;20941;-74
2023/05/04 11:57:37;;;;;;;2.00;1.37;;;23.80;44.10;;;;;;5037362;28;20452;-74
2023/05/04 12:00:05;;;;;;;2.27;1.23;;;23.90;41.50;;;;;;5037207;28;20443;-74
2023/05/04 12:02:33;;;;;;;2.30;1.27;;;24.40;42.50;;;;;;5036635;28;20974;-75
2023/05/04 12:05:00;;;;;;;1.70;1.10;;;24.10;40.00;;;;;;5036822;28;20432;-74
2023/05/04 12:07:28;;;;;;;2.00;1.57;;;24.00;42.10;;;;;;5036936;28;20467;-74
2023/05/04 12:09:54;;;;;;;2.97;1.30;;;24.00;42.80;;;;;;5037173;28;20476;-74
2023/05/04 12:12:23;;;;;;;1.90;1.20;;;23.90;44.00;;;;;;5036516;28;20823;-73
2023/05/04 12:14:51;;;;;;;2.50;1.43;;;23.70;40.80;;;;;;5037049;28;20447;-74
2023/05/04 12:17:19;;;;;;;1.67;0.93;;;23.50;41.70;;;;;;5037101;28;20488;-74
2023/05/04 12:19:51;;;;;;;2.00;1.17;;;23.70;42.80;;;;;;5037856;28;20452;-74
2023/05/04 12:22:18;;;;;;;2.10;1.30;;;23.80;40.70;;;;;;5036501;28;20494;-74
2023/05/04 12:24:45;;;;;;;1.90;1.37;;;24.10;41.80;;;;;;5036290;28;20447;-74
2023/05/04 12:27:14;;;;;;;2.27;1.47;;;24.60;41.80;;;;;;5036922;28;20483;-74
2023/05/04 12:29:43;;;;;;;2.10;1.20;;;24.80;42.30;;;;;;5036917;28;20456;-74
2023/05/04 12:32:09;;;;;;;2.00;1.10;;;24.90;41.60;;;;;;5037593;28;20491;-76
2023/05/04 12:34:37;;;;;;;2.17;1.53;;;24.60;40.20;;;;;;5036833;28;21019;-74
2023/05/04 12:37:03;;;;;;;1.70;1.17;;;24.40;39.00;;;;;;5036324;28;20467;-77
2023/05/04 12:39:31;;;;;;;1.90;1.47;;;24.30;37.60;;;;;;5036779;28;20451;-74
2023/05/04 12:41:58;;;;;;;1.50;0.83;;;24.10;38.90;;;;;;5037636;28;20455;-74
2023/05/04 12:44:25;;;;;;;1.80;1.10;;;24.20;40.90;;;;;;5036691;28;20487;-75
2023/05/04 12:46:54;;;;;;;1.60;1.00;;;24.40;39.80;;;;;;5037073;28;20531;-74
2023/05/04 12:49:20;;;;;;;1.50;0.90;;;24.20;40.00;;;;;;5037267;28;20447;-75
2023/05/04 12:51:47;;;;;;;1.70;0.93;;;24.20;40.20;;;;;;5037169;28;20487;-74
2023/05/04 12:54:14;;;;;;;1.90;1.20;;;24.10;40.20;;;;;;5037299;28;20948;-74
2023/05/04 12:56:41;;;;;;;1.70;1.07;;;24.10;39.70;;;;;;5037430;28;20472;-74
2023/05/04 12:59:07;;;;;;;2.40;1.30;;;24.40;42.80;;;;;;5037125;28;20451;-75
2023/05/04 13:01:34;;;;;;;1.80;1.30;;;24.80;41.50;;;;;;5038263;28;20456;-74
2023/05/04 13:04:02;;;;;;;2.17;1.40;;;24.80;40.00;;;;;;5037010;28;20931;-74
2023/05/04 13:06:29;;;;;;;1.90;1.30;;;24.90;42.20;;;;;;5037152;28;20631;-76
2023/05/04 13:08:57;;;;;;;2.27;1.20;;;25.00;41.40;;;;;;5036885;28;20870;-75
2023/05/04 13:11:24;;;;;;;1.80;1.30;;;25.10;40.60;;;;;;5037835;28;20582;-73
2023/05/04 13:13:51;;;;;;;2.73;1.60;;;25.00;40.00;;;;;;5036657;28;20509;-76
2023/05/04 13:16:18;;;;;;;1.80;1.20;;;25.20;40.90;;;;;;5036451;28;20483;-74
2023/05/04 13:18:52;;;;;;;1.67;1.13;;;25.10;39.90;;;;;;5037330;28;20801;-74
2023/05/04 13:21:20;;;;;;;1.90;1.30;;;25.00;39.40;;;;;;5038686;28;20447;-74
2023/05/04 13:23:47;;;;;;;2.53;1.60;;;24.50;42.00;;;;;;5037501;28;20463;-74
2023/05/04 13:26:13;;;;;;;2.27;1.13;;;24.60;41.10;;;;;;5037743;28;20479;-74
2023/05/04 13:28:40;;;;;;;2.70;1.40;;;24.90;41.30;;;;;;5034751;28;20443;-74
2023/05/04 13:31:07;;;;;;;1.70;1.00;;;25.00;41.40;;;;;;5034013;28;20856;-74
2023/05/04 13:33:34;;;;;;;2.80;1.40;;;24.90;41.60;;;;;;5034377;28;20443;-73
2023/05/04 13:36:01;;;;;;;2.40;1.57;;;24.90;40.80;;;;;;5037133;28;20479;-74
2023/05/04 13:38:30;;;;;;;1.70;1.10;;;25.00;42.30;;;;;;5036799;28;20452;-74
2023/05/04 13:40:56;;;;;;;2.40;1.40;;;25.20;40.80;;;;;;5037125;28;20459;-74
2023/05/04 13:43:23;;;;;;;2.10;1.73;;;25.10;41.80;;;;;;5036525;28;20464;-74
2023/05/04 13:45:51;;;;;;;2.10;1.83;;;25.10;42.10;;;;;;5037553;28;20472;-74
2023/05/04 13:48:17;;;;;;;2.20;1.50;;;25.20;43.10;;;;;;5036573;28;20462;-75
2023/05/04 13:50:44;;;;;;;1.80;1.20;;;25.30;43.10;;;;;;5035374;28;20887;-76
2023/05/04 13:53:11;;;;;;;3.60;1.60;;;25.40;42.80;;;;;;5037431;28;20448;-74
2023/05/04 13:55:39;;;;;;;1.80;1.30;;;25.20;42.30;;;;;;5036691;28;20545;-75
2023/05/04 13:58:06;;;;;;;2.73;1.30;;;24.90;41.70;;;;;;5036666;28;20448;-74
2023/05/04 14:00:33;;;;;;;1.80;1.17;;;25.00;42.30;;;;;;5036144;28;20643;-75
2023/05/04 14:03:00;;;;;;;2.07;1.80;;;25.20;40.80;;;;;;5036311;28;20953;-75
2023/05/04 14:05:27;;;;;;;2.70;1.90;;;25.30;43.40;;;;;;5035866;28;20470;-74
2023/05/04 14:07:53;;;;;;;2.70;1.47;;;25.70;42.20;;;;;;5036882;28;20451;-75
2023/05/04 14:10:20;;;;;;;2.30;1.60;;;25.50;43.00;;;;;;5036764;28;20463;-74
2023/05/04 14:12:48;;;;;;;2.03;1.83;;;25.30;42.50;;;;;;5036360;28;20456;-75
2023/05/04 14:15:16;;;;;;;2.80;2.10;;;25.50;44.20;;;;;;5035846;28;20463;-73
2023/05/04 14:17:45;;;;;;;2.27;1.97;;;26.00;42.60;;;;;;5035700;28;20416;-74
2023/05/04 14:20:13;;;;;;;1.80;1.37;;;26.50;41.90;;;;;;5036781;28;20967;-74
2023/05/04 14:22:40;;;;;;;2.97;1.80;;;26.60;42.10;;;;;;5034942;28;20456;-74
2023/05/04 14:25:08;;;;;;;2.03;1.83;;;26.40;42.80;;;;;;5033521;28;20448;-74
2023/05/04 14:27:35;;;;;;;2.50;2.20;;;26.40;42.30;;;;;;5033435;28;20447;-74
2023/05/04 14:30:03;;;;;;;2.70;1.90;;;26.40;42.20;;;;;;5033442;28;20451;-73
2023/05/04 14:32:30;;;;;;;2.63;1.70;;;26.10;42.60;;;;;;5033359;28;20566;-74
2023/05/04 14:35:01;;;;;;;2.30;1.80;;;26.00;43.70;;;;;;5033310;28;20506;-74
2023/05/04 14:37:27;;;;;;;2.30;1.83;;;25.90;43.70;;;;;;5033315;28;20554;-74
2023/05/04 14:39:54;;;;;;;2.53;2.00;;;26.10;44.20;;;;;;5032936;28;20447;-74
2023/05/04 14:42:21;;;;;;;3.00;2.20;;;26.00;42.90;;;;;;5032735;28;20793;-74
2023/05/04 14:44:47;;;;;;;2.33;2.13;;;25.90;42.90;;;;;;5032900;28;20941;-74
2023/05/04 14:47:16;;;;;;;2.77;1.93;;;26.20;42.60;;;;;;5032932;28;20903;-74
2023/05/04 14:49:43;;;;;;;3.13;2.00;;;26.10;42.50;;;;;;5032976;28;20945;-73
2023/05/04 14:52:10;;;;;;;2.20;2.00;;;25.60;43.40;;;;;;5032887;28;20475;-74
2023/05/04 14:54:36;;;;;;;2.37;1.77;;;25.30;43.30;;;;;;5033169;28;20498;-74
2023/05/04 14:57:03;;;;;;;2.40;1.50;;;25.10;44.50;;;;;;5033141;28;20521;-74
2023/05/04 14:59:30;;;;;;;2.77;2.07;;;25.30;44.30;;;;;;5033051;28;20478;-74
2023/05/04 15:01:57;;;;;;;2.37;2.17;;;25.80;44.60;;;;;;5035747;28;20501;-74
2023/05/04 15:04:25;;;;;;;2.13;1.77;;;26.10;43.80;;;;;;5037109;28;20501;-73
2023/05/04 15:06:52;;;;;;;2.67;2.40;;;26.40;42.80;;;;;;5037110;28;20558;-74
2023/05/04 15:09:18;;;;;;;3.93;2.47;;;26.50;42.30;;;;;;5036733;28;20975;-74
2023/05/04 15:11:45;;;;;;;2.40;2.20;;;26.70;43.20;;;;;;5036668;28;21033;-74
2023/05/04 15:14:12;;;;;;;2.63;2.40;;;26.90;42.70;;;;;;5037024;28;20451;-73
2023/05/04 15:16:39;;;;;;;2.93;1.87;;;27.00;42.10;;;;;;5036556;28;20895;-73
2023/05/04 15:19:05;;;;;;;2.93;1.90;;;27.30;41.40;;;;;;5037751;28;20458;-74
2023/05/04 15:21:34;;;;;;;2.53;1.73;;;27.60;41.10;;;;;;5039006;28;20440;-74
2023/05/04 15:24:01;;;;;;;3.23;1.70;;;27.90;41.80;;;;;;5036724;28;20509;-73
2023/05/04 15:26:29;;;;;;;2.40;1.70;;;28.20;41.00;;;;;;5036671;28;20467;-73
2023/05/04 15:28:57;;;;;;;2.20;1.57;;;28.50;40.20;;;;;;5036794;28;20447;-73
2023/05/04 15:31:23;;;;;;;2.50;1.90;;;28.10;39.20;;;;;;5036540;28;20482;-73
2023/05/04 15:33:50;;;;;;;2.50;2.00;;;27.70;40.20;;;;;;5036579;28;20451;-73
2023/05/04 15:36:17;;;;;;;2.63;2.23;;;27.00;41.50;;;;;;5036460;28;20537;-74
2023/05/04 15:38:45;;;;;;;2.90;1.57;;;26.60;41.70;;;;;;5036391;28;20533;-74
2023/05/04 15:41:13;;;;;;;2.40;1.80;;;26.60;42.60;;;;;;5036427;28;20447;-74
2023/05/04 15:43:39;;;;;;;2.83;1.83;;;25.90;43.40;;;;;;5036176;28;20947;-73
2023/05/04 15:46:06;;;;;;;2.73;1.93;;;25.70;43.90;;;;;;5036244;28;20475;-74
2023/05/04 15:48:32;;;;;;;2.40;2.00;;;25.40;43.50;;;;;;5036332;28;20444;-74
2023/05/04 15:50:59;;;;;;;2.87;2.27;;;25.40;44.10;;;;;;5036193;28;20544;-74
2023/05/04 15:53:27;;;;;;;2.57;1.50;;;25.20;44.40;;;;;;5036240;28;20872;-74
2023/05/04 15:55:55;;;;;;;2.20;1.50;;;25.20;44.70;;;;;;5036125;28;20471;-74
2023/05/04 15:58:21;;;;;;;3.40;1.87;;;25.00;44.90;;;;;;5035806;28;20454;-74
2023/05/04 16:00:48;;;;;;;3.10;1.87;;;24.80;44.70;;;;;;5036305;28;20439;-73
2023/05/04 16:03:15;;;;;;;2.33;1.57;;;25.00;45.00;;;;;;5036086;28;20458;-74
2023/05/04 16:05:42;;;;;;;2.30;1.90;;;24.90;44.40;;;;;;5035983;28;20471;-74
2023/05/04 16:08:09;;;;;;;2.50;1.63;;;24.70;45.00;;;;;;5035941;28;20506;-74
2023/05/04 16:10:36;;;;;;;2.10;1.70;;;24.80;45.50;;;;;;5035880;28;20447;-73
2023/05/04 16:13:04;;;;;;;2.10;1.80;;;24.50;45.80;;;;;;5034576;28;20486;-73
2023/05/04 16:17:58;;;;;;;2.67;2.17;;;24.40;45.60;;;;;;4994571;28;20854;-74
2023/05/04 16:20:26;;;;;;;2.60;2.03;;;24.50;45.80;;;;;;4995763;28;20446;-75
2023/05/04 16:22:52;;;;;;;3.37;2.00;;;24.70;45.50;;;;;;4995702;28;20496;-75
2023/05/04 16:25:19;;;;;;;2.27;1.77;;;24.70;45.70;;;;;;4995744;28;20441;-76
2023/05/04 16:27:46;;;;;;;2.80;2.10;;;24.60;45.20;;;;;;4995844;28;20479;-75
2023/05/04 16:30:16;;;;;;;2.30;1.90;;;24.60;45.60;;;;;;4995787;28;20544;-75
2023/05/04 16:32:42;;;;;;;2.27;1.90;;;24.70;46.20;;;;;;4995504;28;20504;-75
2023/05/04 16:35:09;;;;;;;2.20;1.80;;;24.70;46.10;;;;;;4994974;28;20809;-75
2023/05/04 16:37:37;;;;;;;3.97;2.20;;;24.60;46.10;;;;;;4994984;28;20959;-75
2023/05/04 16:40:12;;;;;;;3.10;1.90;;;24.20;46.60;;;;;;4995074;28;20862;-76
2023/05/04 16:42:39;;;;;;;3.27;2.20;;;24.20;46.70;;;;;;4995448;28;20503;-75
2023/05/04 16:45:07;;;;;;;3.67;2.10;;;24.20;46.90;;;;;;4995016;28;20829;-76
2023/05/04 16:47:35;;;;;;;2.63;2.00;;;24.10;47.00;;;;;;4995210;28;20543;-76
2023/05/04 16:50:01;;;;;;;3.27;2.20;;;23.80;47.30;;;;;;4995218;28;20802;-76
2023/05/04 16:52:28;;;;;;;2.50;2.23;;;23.70;47.90;;;;;;4994850;28;20970;-76
2023/05/04 16:54:55;;;;;;;3.33;2.37;;;23.70;47.50;;;;;;4994833;28;20449;-76